createdAt,value
2018-04-13T00:00:32.693Z,12.93
2018-04-13T00:02:59.516Z,12.90
2018-04-13T00:05:26.350Z,13.67
2018-04-13T00:07:54.256Z,13.47
2018-04-13T00:10:20.990Z,12.77
2018-04-13T00:12:47.798Z,14.57
2018-04-13T00:15:14.648Z,13.60
2018-04-13T00:17:42.406Z,12.67
2018-04-13T00:20:10.195Z,14.73
2018-04-13T00:22:37.033Z,12.77
2018-04-13T00:25:03.857Z,11.37
2018-04-13T00:27:32.571Z,12.77
2018-04-13T00:30:02.465Z,14.03
2018-04-13T00:32:30.237Z,13.67
2018-04-13T00:34:57.118Z,13.30
2018-04-13T00:37:23.947Z,15.07
2018-04-13T00:39:50.769Z,14.23
2018-04-13T00:42:17.618Z,14.00
2018-04-13T00:44:48.143Z,13.13
2018-04-13T00:47:18.714Z,12.57
2018-04-13T00:49:45.573Z,12.57
2018-04-13T00:52:12.361Z,14.23
2018-04-13T00:54:41.047Z,13.90
2018-04-13T00:57:09.743Z,12.93
2018-04-13T00:59:37.512Z,13.33
2018-04-13T01:02:04.349Z,12.37
2018-04-13T01:04:31.225Z,12.33
2018-04-13T01:06:58.023Z,13.00
2018-04-13T01:09:24.884Z,14.37
2018-04-13T01:11:54.809Z,13.90
2018-04-13T01:14:21.637Z,12.93
2018-04-13T01:16:48.482Z,13.40
2018-04-13T01:19:21.145Z,13.97
2018-04-13T01:21:49.861Z,12.67
2018-04-13T01:24:18.549Z,12.63
2018-04-13T01:26:47.213Z,13.93
2018-04-13T01:29:14.980Z,12.63
2018-04-13T01:31:41.856Z,13.77
2018-04-13T01:34:09.632Z,12.00
2018-04-13T01:36:36.450Z,15.13
2018-04-13T01:39:04.198Z,13.17
2018-04-13T01:41:32.921Z,13.13
2018-04-13T01:44:00.662Z,12.10
2018-04-13T01:46:27.516Z,13.80
2018-04-13T01:48:56.190Z,12.77
2018-04-13T01:51:23.974Z,12.03
2018-04-13T01:53:50.822Z,13.17
2018-04-13T01:56:19.488Z,12.07
2018-04-13T01:58:47.240Z,13.37
2018-04-13T02:01:14.102Z,11.73
2018-04-13T02:03:41.853Z,12.97
2018-04-13T02:06:08.714Z,13.67
2018-04-13T02:08:35.664Z,14.07
2018-04-13T02:11:02.391Z,12.33
2018-04-13T02:13:29.256Z,14.03
2018-04-13T02:15:56.094Z,13.00
2018-04-13T02:18:24.752Z,14.07
2018-04-13T02:20:55.017Z,12.63
2018-04-13T02:23:22.759Z,18.10
2018-04-13T02:25:50.534Z,14.27
2018-04-13T02:28:24.428Z,12.83
2018-04-13T02:30:54.344Z,14.13
2018-04-13T02:33:21.178Z,14.63
2018-04-13T02:35:48.044Z,13.73
2018-04-13T02:38:18.258Z,13.70
2018-04-13T02:40:45.090Z,15.23
2018-04-13T02:43:12.870Z,14.23
2018-04-13T02:45:39.731Z,14.27
2018-04-13T02:48:06.547Z,15.10
2018-04-13T02:50:33.392Z,16.73
2018-04-13T02:53:00.250Z,13.90
2018-04-13T02:55:28.010Z,14.57
2018-04-13T02:57:58.219Z,13.93
2018-04-13T03:00:25.094Z,14.47
2018-04-13T03:02:51.904Z,14.83
2018-04-13T03:05:18.767Z,15.37
2018-04-13T03:07:45.633Z,14.90
2018-04-13T03:10:13.379Z,13.60
2018-04-13T03:12:40.262Z,14.27
2018-04-13T03:15:07.056Z,14.33
2018-04-13T03:17:33.902Z,14.73
2018-04-13T03:20:01.696Z,14.83
2018-04-13T03:22:28.519Z,14.00
2018-04-13T03:24:55.354Z,12.97
2018-04-13T03:27:22.227Z,14.67
2018-04-13T03:29:49.030Z,13.43
2018-04-13T03:32:19.576Z,13.67
2018-04-13T03:34:47.347Z,14.03
2018-04-13T03:37:14.172Z,15.23
2018-04-13T03:39:41.013Z,11.97
2018-04-13T03:42:11.263Z,14.67
2018-04-13T03:44:38.102Z,14.00
2018-04-13T03:47:05.878Z,13.90
2018-04-13T03:49:32.708Z,12.97
2018-04-13T03:52:04.138Z,12.47
2018-04-13T03:54:31.063Z,15.37
2018-04-13T03:56:57.859Z,13.33
2018-04-13T03:59:24.684Z,13.23
2018-04-13T04:01:51.559Z,11.73
2018-04-13T04:04:18.368Z,15.17
2018-04-13T04:06:45.209Z,14.53
2018-04-13T04:09:12.109Z,14.47
2018-04-13T04:11:38.884Z,12.53
2018-04-13T04:14:05.737Z,13.60
2018-04-13T04:16:36.293Z,12.70
2018-04-13T04:19:10.476Z,13.53
2018-04-13T04:21:45.024Z,12.17
2018-04-13T04:24:18.684Z,12.50
2018-04-13T04:26:48.288Z,13.50
2018-04-13T04:29:15.073Z,12.73
2018-04-13T04:31:41.924Z,12.90
2018-04-13T04:34:08.755Z,11.53
2018-04-13T04:36:37.452Z,12.93
2018-04-13T04:39:05.199Z,11.63
2018-04-13T04:41:40.369Z,11.90
2018-04-13T04:44:07.196Z,12.60
2018-04-13T04:46:34.043Z,12.70
2018-04-13T04:49:02.729Z,11.70
2018-04-13T04:51:35.096Z,12.30
2018-04-13T04:54:01.970Z,12.40
2018-04-13T04:56:28.783Z,12.47
2018-04-13T04:58:56.551Z,12.10
2018-04-13T05:01:25.269Z,11.87
2018-04-13T05:03:52.089Z,11.03
2018-04-13T05:06:18.925Z,10.90
2018-04-13T05:08:46.717Z,11.87
2018-04-13T05:11:14.460Z,13.17
2018-04-13T05:13:41.304Z,12.37
2018-04-13T05:16:20.610Z,10.43
2018-04-13T05:18:48.783Z,11.77
2018-04-13T05:21:17.531Z,13.63
2018-04-13T05:23:44.346Z,17.10
2018-04-13T05:26:11.197Z,14.87
2018-04-13T05:28:38.335Z,15.87
2018-04-13T05:31:05.170Z,15.27
2018-04-13T05:33:32.017Z,14.00
2018-04-13T05:35:59.804Z,11.67
2018-04-13T05:38:26.625Z,12.13
2018-04-13T05:40:54.390Z,13.40
2018-04-13T05:43:21.279Z,16.00
2018-04-13T05:45:48.083Z,14.83
2018-04-13T05:55:05.645Z,34.90
2018-04-13T05:57:33.492Z,32.00
2018-04-13T06:00:04.273Z,37.13
2018-04-13T06:02:35.134Z,39.20
2018-04-13T06:05:08.092Z,41.77
2018-04-13T06:07:53.261Z,46.80
2018-04-13T06:10:40.710Z,45.40
2018-04-13T06:13:20.732Z,49.10
2018-04-13T06:15:57.564Z,64.57
2018-04-13T06:18:24.422Z,85.60
2018-04-13T06:21:03.489Z,109.90
2018-04-13T06:23:48.983Z,108.60
2018-04-13T06:26:17.784Z,91.83
2018-04-13T06:28:46.516Z,91.13
2018-04-13T06:31:13.341Z,95.27
2018-04-13T06:33:41.994Z,74.23
2018-04-13T06:36:14.098Z,76.87
2018-04-13T06:38:43.981Z,76.20
2018-04-13T06:41:11.745Z,105.03
2018-04-13T06:43:38.658Z,84.90
2018-04-13T06:46:05.471Z,71.30
2018-04-13T06:48:33.193Z,54.37
2018-04-13T06:51:00.069Z,58.50
2018-04-13T06:53:26.877Z,60.50
2018-04-13T06:55:53.708Z,55.90
2018-04-13T06:58:23.979Z,55.50
2018-04-13T07:00:59.062Z,61.20
2018-04-13T07:03:25.927Z,53.83
2018-04-13T07:05:52.809Z,55.43
2018-04-13T07:08:19.644Z,62.53
2018-04-13T07:10:46.457Z,58.70
2018-04-13T07:13:13.309Z,58.40
2018-04-13T07:15:49.966Z,64.70
2018-04-13T07:18:22.697Z,65.77
2018-04-13T07:23:36.552Z,70.63
2018-04-13T07:47:19.044Z,49.90
2018-04-13T07:49:46.736Z,49.73
2018-04-13T07:52:14.530Z,49.20
2018-04-13T07:54:41.363Z,47.03
2018-04-13T07:57:09.119Z,50.60
2018-04-13T07:59:45.137Z,43.00
2018-04-13T08:02:16.323Z,41.87
2018-04-13T08:04:44.109Z,39.93
2018-04-13T08:07:17.368Z,41.33
2018-04-13T08:09:46.093Z,39.10
2018-04-13T08:12:14.774Z,36.90
2018-04-13T08:14:45.925Z,39.83
2018-04-13T08:17:12.773Z,39.83
2018-04-13T08:19:54.529Z,39.23
2018-04-13T08:22:22.107Z,41.23
2018-04-13T08:24:54.491Z,38.43
2018-04-13T08:27:25.928Z,37.03
2018-04-13T08:29:52.824Z,37.63
2018-04-13T08:32:24.263Z,32.87
2018-04-13T08:34:59.708Z,33.73
2018-04-13T08:37:38.195Z,34.37
2018-04-13T08:40:05.956Z,33.17
2018-04-13T08:42:36.489Z,30.83
2018-04-13T08:45:22.244Z,33.77
2018-04-13T08:47:48.919Z,31.70
2018-04-13T08:50:17.610Z,28.87
2018-04-13T08:52:45.369Z,28.83
2018-04-13T08:55:15.287Z,30.03
2018-04-13T08:57:43.078Z,26.70
2018-04-13T09:00:09.895Z,26.07
2018-04-13T09:02:37.672Z,25.40
2018-04-13T09:05:04.503Z,25.70
2018-04-13T09:07:32.281Z,22.80
2018-04-13T09:10:00.107Z,23.40
2018-04-13T09:12:30.242Z,25.90
2018-04-13T09:14:57.110Z,24.93
2018-04-13T09:17:35.305Z,24.27
2018-04-13T09:20:07.994Z,25.37
2018-04-13T09:22:40.354Z,26.50
2018-04-13T09:25:11.066Z,24.03
2018-04-13T09:27:50.322Z,28.13
2018-04-13T09:30:29.431Z,26.53
2018-04-13T09:33:02.444Z,26.13
2018-04-13T09:35:29.326Z,23.60
2018-04-13T09:40:55.818Z,23.83
2018-04-13T09:43:26.082Z,22.70
2018-04-13T09:46:04.286Z,27.23
2018-04-13T09:48:36.065Z,28.80
2018-04-13T09:51:07.530Z,27.87
2018-04-13T09:53:52.678Z,26.13
2018-04-13T09:56:36.092Z,31.63
2018-04-13T09:59:04.922Z,27.97
2018-04-13T10:01:38.442Z,27.00
2018-04-13T10:04:13.632Z,31.93
2018-04-13T10:06:40.482Z,29.80
2018-04-13T10:09:08.245Z,30.83
2018-04-13T10:11:36.971Z,28.73
2018-04-13T10:14:07.161Z,28.90
2018-04-13T10:16:37.719Z,27.13
2018-04-13T10:19:12.183Z,33.67
2018-04-13T10:21:39.134Z,30.33
2018-04-13T10:26:52.729Z,29.97
2018-04-13T10:29:19.536Z,27.37
2018-04-13T10:31:51.047Z,27.30
2018-04-13T10:34:22.744Z,25.30
2018-04-13T10:36:50.569Z,25.80
2018-04-13T10:42:04.200Z,26.13
2018-04-13T10:44:49.351Z,33.30
2018-04-13T10:47:18.152Z,30.40
2018-04-13T10:49:49.916Z,27.33
2018-04-13T10:52:17.681Z,29.37
2018-04-13T10:54:51.580Z,25.37
2018-04-13T10:57:24.231Z,28.47
2018-04-13T10:59:58.774Z,26.63
2018-04-13T11:02:26.560Z,23.10
2018-04-13T11:04:54.335Z,26.67
2018-04-13T11:07:24.846Z,31.73
2018-04-13T11:09:53.540Z,26.10
2018-04-13T11:12:22.238Z,28.57
2018-04-13T11:14:49.983Z,24.53
2018-04-13T11:17:18.686Z,27.17
2018-04-13T11:19:51.352Z,26.57
2018-04-13T11:22:18.267Z,30.93
2018-04-13T11:24:53.635Z,25.73
2018-04-13T11:27:21.438Z,30.47
2018-04-13T11:29:53.278Z,27.30
2018-04-13T11:32:20.966Z,30.07
2018-04-13T11:34:49.374Z,29.57
2018-04-13T11:37:17.089Z,28.57
2018-04-13T11:39:47.025Z,28.87
2018-04-13T11:42:14.770Z,30.53
2018-04-13T11:44:42.523Z,29.70
2018-04-13T11:47:10.327Z,32.07
2018-04-13T11:49:37.142Z,32.67
2018-04-13T11:52:04.906Z,30.47
2018-04-13T11:54:31.774Z,30.80
2018-04-13T11:56:58.598Z,32.07
2018-04-13T11:59:25.435Z,36.07
2018-04-13T12:01:52.290Z,32.03
2018-04-13T12:04:19.115Z,33.23
2018-04-13T12:06:45.961Z,34.23
2018-04-13T12:09:14.684Z,36.80
2018-04-13T12:11:53.166Z,35.97
2018-04-13T12:14:20.013Z,35.53
2018-04-13T12:16:48.705Z,38.10
2018-04-13T12:19:21.055Z,33.53
2018-04-13T12:21:47.943Z,37.23
2018-04-13T12:24:14.749Z,41.30
2018-04-13T12:26:47.442Z,36.17
2018-04-13T12:29:21.665Z,39.10
2018-04-13T12:31:56.170Z,36.13
2018-04-13T12:34:34.700Z,43.80
2018-04-13T12:37:13.207Z,40.43
2018-04-13T12:39:49.949Z,43.43
2018-04-13T12:42:22.562Z,43.77
2018-04-13T12:45:00.175Z,42.97
2018-04-13T12:50:12.293Z,41.87
2018-04-13T12:52:51.614Z,39.63
2018-04-13T12:55:18.276Z,47.13
2018-04-13T12:57:45.119Z,46.27
2018-04-13T13:00:30.265Z,45.00
2018-04-13T13:03:09.698Z,46.03
2018-04-13T13:05:36.395Z,44.63
2018-04-13T13:08:05.061Z,41.70
2018-04-13T13:10:34.988Z,42.90
2018-04-13T13:13:02.740Z,46.70
2018-04-13T13:15:30.502Z,48.30
2018-04-13T13:17:58.266Z,51.03
2018-04-13T13:20:30.343Z,46.83
2018-04-13T13:22:58.097Z,45.70
2018-04-13T13:25:24.971Z,45.70
2018-04-13T13:27:53.623Z,41.77
2018-04-13T13:30:21.389Z,41.40
2018-04-13T13:32:49.189Z,41.87
2018-04-13T13:35:21.223Z,42.67
2018-04-13T13:40:37.018Z,42.80
2018-04-13T13:43:21.881Z,41.83
2018-04-13T13:45:50.701Z,47.83
2018-04-13T13:48:19.380Z,52.07
2018-04-13T13:50:58.778Z,41.67
2018-04-13T13:53:27.516Z,43.20
2018-04-13T13:55:55.274Z,47.13
2018-04-13T13:58:22.416Z,47.73
2018-04-13T14:00:49.293Z,47.23
2018-04-13T14:03:16.139Z,47.03
2018-04-13T14:05:42.965Z,51.20
2018-04-13T14:08:09.847Z,48.90
2018-04-13T14:10:36.647Z,45.63
2018-04-13T14:13:05.336Z,38.17
2018-04-13T14:15:39.235Z,41.23
2018-04-13T14:18:08.848Z,42.27
2018-04-13T14:20:38.459Z,43.20
2018-04-13T14:25:52.430Z,47.90
2018-04-13T14:31:15.258Z,39.50
2018-04-13T14:33:54.418Z,39.80
2018-04-13T14:36:22.226Z,39.73
2018-04-13T14:38:59.778Z,38.70
2018-04-13T14:44:18.694Z,40.63
2018-04-13T14:46:47.336Z,38.87
2018-04-13T14:49:14.231Z,39.80
2018-04-13T14:51:45.670Z,39.13
2018-04-13T14:54:12.482Z,36.53
2018-04-13T14:56:47.710Z,58.97
2018-04-13T14:59:15.377Z,44.20
2018-04-13T15:01:42.233Z,39.90
2018-04-13T15:04:13.076Z,46.97
2018-04-13T15:06:40.829Z,42.83
2018-04-13T15:09:08.677Z,44.37
2018-04-13T15:11:40.366Z,38.97
2018-04-13T15:14:08.416Z,41.63
2018-04-13T15:16:36.190Z,39.40
2018-04-13T15:19:04.012Z,35.33
2018-04-13T15:21:32.664Z,41.80
2018-04-13T15:24:05.099Z,40.67
2018-04-13T15:26:48.950Z,43.37
2018-04-13T15:29:30.528Z,38.13
2018-04-13T15:32:01.801Z,41.63
2018-04-13T15:34:33.284Z,40.30
2018-04-13T15:37:18.448Z,37.73
2018-04-13T15:39:45.120Z,40.20
2018-04-13T15:42:23.887Z,40.33
2018-04-13T15:45:05.064Z,42.57
2018-04-13T15:47:42.080Z,45.53
2018-04-13T15:50:09.954Z,44.43
2018-04-13T15:52:36.781Z,42.23
2018-04-13T15:55:05.488Z,37.00
2018-04-13T15:57:33.225Z,38.00
2018-04-13T16:00:00.988Z,41.80
2018-04-13T16:02:28.772Z,44.33
2018-04-13T16:04:57.496Z,42.50
2018-04-13T16:07:26.124Z,43.13
2018-04-13T16:10:00.346Z,42.47
2018-04-13T16:12:33.960Z,40.47
2018-04-13T16:15:02.653Z,42.27
2018-04-13T16:17:35.301Z,42.13
2018-04-13T16:20:02.326Z,36.03
2018-04-13T16:22:31.154Z,38.43
2018-04-13T16:24:57.995Z,37.43
2018-04-13T16:27:25.765Z,40.20
2018-04-13T16:29:53.551Z,37.23
2018-04-13T16:32:22.254Z,46.67
2018-04-13T16:35:06.461Z,52.77
2018-04-13T16:37:33.156Z,39.07
2018-04-13T16:39:59.937Z,47.67
2018-04-13T16:42:26.852Z,46.53
2018-04-13T16:44:53.662Z,40.43
2018-04-13T16:47:20.489Z,41.30
2018-04-13T16:49:47.333Z,36.93
2018-04-13T16:52:14.191Z,39.70
2018-04-13T16:54:41.019Z,40.63
2018-04-13T16:57:07.860Z,40.10
2018-04-13T16:59:34.729Z,40.50
2018-04-13T17:02:03.392Z,43.57
2018-04-13T17:04:33.941Z,42.83
2018-04-13T17:07:00.786Z,40.10
2018-04-13T17:09:29.458Z,44.40
2018-04-13T17:11:56.328Z,41.37
2018-04-13T17:14:23.140Z,47.83
2018-04-13T17:16:54.882Z,50.73
2018-04-13T17:19:25.470Z,45.03
2018-04-13T17:21:59.336Z,44.67
2018-04-13T17:24:29.258Z,43.50
2018-04-13T17:26:57.957Z,47.27
2018-04-13T17:29:42.165Z,46.93
2018-04-13T17:32:13.122Z,48.17
2018-04-13T17:34:40.963Z,53.50
2018-04-13T17:37:10.063Z,51.55
2018-04-13T17:39:42.894Z,84.17
2018-04-13T17:42:09.787Z,60.23
2018-04-13T17:44:41.263Z,56.80
2018-04-13T17:47:08.310Z,46.33
2018-04-13T17:49:42.521Z,51.10
2018-04-13T17:52:10.370Z,49.57
2018-04-13T17:54:40.833Z,51.20
2018-04-13T17:57:08.603Z,50.33
2018-04-13T17:59:36.373Z,47.63
2018-04-13T18:02:06.310Z,48.83
2018-04-13T18:04:34.078Z,49.10
2018-04-13T18:07:04.911Z,53.17
2018-04-13T18:09:31.747Z,46.27
2018-04-13T18:11:59.495Z,51.20
2018-04-13T18:14:38.611Z,49.03
2018-04-13T18:17:05.552Z,57.43
2018-04-13T18:19:32.453Z,60.40
2018-04-13T18:22:00.157Z,63.17
2018-04-13T18:24:26.967Z,68.10
2018-04-13T18:26:55.663Z,67.20
2018-04-13T18:29:26.461Z,71.95
2018-04-13T18:32:00.931Z,74.80
2018-04-13T18:34:29.663Z,76.43
2018-04-13T18:36:56.536Z,85.07
2018-04-13T18:39:24.298Z,79.60
2018-04-13T18:41:52.036Z,80.97
2018-04-13T18:44:20.744Z,79.57
2018-04-13T18:46:47.570Z,78.50
2018-04-13T18:49:14.438Z,79.97
2018-04-13T18:51:41.259Z,75.57
2018-04-13T18:54:08.132Z,75.87
2018-04-13T18:56:34.974Z,78.57
2018-04-13T18:59:03.620Z,74.67
2018-04-13T19:01:31.421Z,76.37
2018-04-13T19:04:05.309Z,73.13
2018-04-13T19:06:32.162Z,74.33
2018-04-13T19:09:08.838Z,65.13
2018-04-13T19:11:43.339Z,72.13
2018-04-13T19:14:11.193Z,74.67
2018-04-13T19:16:43.501Z,72.73
2018-04-13T19:19:13.419Z,74.07
2018-04-13T19:21:44.255Z,76.27
2018-04-13T19:24:18.467Z,79.30
2018-04-13T19:26:46.231Z,74.77
2018-04-13T19:29:14.997Z,77.03
2018-04-13T19:31:52.793Z,75.43
2018-04-13T19:34:22.869Z,88.03
2018-04-13T19:36:50.667Z,100.60
2018-04-13T19:39:17.339Z,107.70
2018-04-13T19:41:46.112Z,97.07
2018-04-13T19:44:12.893Z,108.57
2018-04-13T19:46:44.643Z,103.67
2018-04-13T19:49:11.485Z,98.97
2018-04-13T19:51:39.371Z,105.27
2018-04-13T19:54:07.010Z,90.77
2018-04-13T19:56:40.008Z,86.27
2018-04-13T19:59:11.137Z,110.77
2018-04-13T20:01:37.991Z,107.87
2018-04-13T20:04:04.858Z,95.73
2018-04-13T20:06:31.691Z,82.37
2018-04-13T20:08:58.605Z,94.20
2018-04-13T20:11:29.215Z,94.47
2018-04-13T20:13:58.123Z,89.47
2018-04-13T20:16:28.574Z,82.93
2018-04-13T20:19:02.223Z,90.77
2018-04-13T20:21:30.872Z,81.87
2018-04-13T20:24:03.534Z,90.83
2018-04-13T20:26:36.232Z,84.70
2018-04-13T20:29:03.106Z,94.10
2018-04-13T20:31:33.603Z,94.97
2018-04-13T20:34:15.726Z,90.13
2018-04-13T20:36:42.413Z,86.53
2018-04-13T20:39:10.207Z,71.63
2018-04-13T20:41:36.962Z,84.87
2018-04-13T20:44:03.824Z,94.03
2018-04-13T20:46:33.737Z,87.87
2018-04-13T20:49:04.833Z,87.27
2018-04-13T20:51:36.304Z,92.13
2018-04-13T20:54:03.169Z,88.37
2018-04-13T20:56:30.968Z,84.20
2018-04-13T20:59:03.490Z,80.03
2018-04-13T21:01:30.170Z,80.70
2018-04-13T21:03:57.926Z,74.53
2018-04-13T21:06:25.678Z,87.80
2018-04-13T21:08:53.442Z,90.07
2018-04-13T21:11:32.230Z,89.30
2018-04-13T21:14:00.356Z,90.63
2018-04-13T21:16:28.099Z,94.53
2018-04-13T21:18:56.235Z,92.10
2018-04-13T21:24:11.750Z,97.13
2018-04-13T21:26:38.778Z,85.87
2018-04-13T21:29:05.955Z,87.63
2018-04-13T21:31:32.825Z,96.10
2018-04-13T21:34:00.598Z,87.10
2018-04-13T21:36:34.171Z,77.03
2018-04-13T21:39:03.234Z,78.73
2018-04-13T21:41:30.025Z,88.13
2018-04-13T21:44:00.910Z,83.43
2018-04-13T21:46:27.747Z,76.13
2018-04-13T21:48:58.230Z,74.80
2018-04-13T21:51:32.038Z,80.27
2018-04-13T21:53:59.911Z,82.00
2018-04-13T21:56:27.673Z,74.30
2018-04-13T21:58:54.787Z,85.60
2018-04-13T22:01:23.509Z,87.43
2018-04-13T22:03:55.873Z,126.23
2018-04-13T22:06:22.719Z,109.33
2018-04-13T22:08:52.647Z,117.73
2018-04-13T22:11:20.367Z,104.90
2018-04-13T22:13:59.817Z,109.60
2018-04-13T22:16:36.498Z,125.47
2018-04-13T22:19:03.371Z,91.30
2018-04-13T22:21:30.232Z,89.47
2018-04-13T22:24:01.046Z,97.20
2018-04-13T22:26:33.456Z,84.97
2018-04-13T22:29:06.943Z,92.67
2018-04-13T22:31:39.697Z,89.03
2018-04-13T22:34:06.539Z,87.27
2018-04-13T22:36:33.378Z,76.03
2018-04-13T22:39:00.240Z,81.73
2018-04-13T22:41:27.080Z,78.57
2018-04-13T22:44:05.291Z,87.43
2018-04-13T22:46:36.432Z,80.17
2018-04-13T22:49:04.187Z,81.30
2018-04-13T22:51:31.965Z,73.70
2018-04-13T22:54:03.416Z,76.47
2018-04-13T22:56:31.179Z,76.47
2018-04-13T22:58:59.864Z,66.30
2018-04-13T23:01:34.909Z,71.80
2018-04-13T23:04:04.632Z,68.73
2018-04-13T23:06:32.373Z,67.40
2018-04-13T23:08:59.239Z,73.00
2018-04-13T23:11:26.077Z,71.53
2018-04-13T23:13:58.570Z,81.40
2018-04-13T23:16:26.213Z,75.87
2018-04-13T23:18:53.964Z,84.70
2018-04-13T23:21:33.601Z,74.43
2018-04-13T23:24:06.122Z,76.13
2018-04-13T23:26:38.769Z,77.87
2018-04-13T23:29:19.024Z,70.60
2018-04-13T23:31:53.859Z,85.93
2018-04-13T23:34:24.885Z,76.17
2018-04-13T23:36:51.673Z,65.17
2018-04-13T23:39:19.443Z,73.57
2018-04-13T23:41:54.525Z,69.03
2018-04-13T23:44:28.358Z,72.40
2018-04-13T23:46:57.142Z,63.33
2018-04-13T23:49:24.642Z,63.17
2018-04-13T23:51:55.138Z,57.03
2018-04-13T23:54:32.677Z,62.90
2018-04-13T23:56:59.340Z,66.13
2018-04-13T23:59:29.177Z,66.77
